Time,TemperatureF,DewpointF,PressureIn,WindDirection,WindDirectionDegrees,WindSpeedMPH,WindSpeedGustMPH,Humidity,HourlyPrecipIn,Conditions,Clouds,dailyrainin,SoftwareType,DateUTC
2013-05-02 00:13:00,51.2,43.0,30.43,NNW,345,1.0,2.0,73,0.00,,,0.00,weatherlink.com 1.10,2013-05-02 04:13:00,
2013-05-02 00:29:00,50.4,43.0,30.43,NNE,20,0.0,2.0,76,0.00,,,0.00,weatherlink.com 1.10,2013-05-02 04:29:00,
2013-05-02 00:43:00,51.3,43.0,30.43,NNE,27,0.0,3.0,74,0.00,,,0.00,weatherlink.com 1.10,2013-05-02 04:43:00,
2013-05-02 00:58:00,50.2,43.0,30.43,NW,311,1.0,2.0,76,0.00,,,0.00,weatherlink.com 1.10,2013-05-02 04:58:00,
2013-05-02 01:13:00,48.5,43.0,30.42,NW,308,1.0,3.0,81,0.00,,,0.00,weatherlink.com 1.10,2013-05-02 05:13:00,
2013-05-02 01:28:00,48.7,43.0,30.42,NNW,331,1.0,2.0,80,0.00,,,0.00,weatherlink.com 1.10,2013-05-02 05:28:00,
2013-05-02 01:43:00,47.1,42.0,30.42,NW,321,2.0,3.0,83,0.00,,,0.00,weatherlink.com 1.10,2013-05-02 05:43:00,
2013-05-02 01:58:00,45.9,42.0,30.42,NNW,328,1.0,3.0,87,0.00,,,0.00,weatherlink.com 1.10,2013-05-02 05:58:00,
2013-05-02 02:13:00,46.4,42.0,30.42,NW,323,2.0,3.0,85,0.00,,,0.00,weatherlink.com 1.10,2013-05-02 06:13:00,
2013-05-02 02:28:00,45.3,42.0,30.42,NW,307,2.0,3.0,89,0.00,,,0.00,weatherlink.com 1.10,2013-05-02 06:28:00,
2013-05-02 02:43:00,45.9,42.0,30.41,NW,319,1.0,2.0,86,0.00,,,0.00,weatherlink.com 1.10,2013-05-02 06:43:00,
2013-05-02 02:59:00,45.2,42.0,30.41,NW,319,1.0,2.0,89,0.00,,,0.00,weatherlink.com 1.10,2013-05-02 06:59:00,
2013-05-02 03:14:00,44.4,41.0,30.42,NW,319,1.0,2.0,89,0.00,,,0.00,weatherlink.com 1.10,2013-05-02 07:14:00,
2013-05-02 03:29:00,44.0,42.0,30.42,NW,311,2.0,3.0,91,0.00,,,0.00,weatherlink.com 1.10,2013-05-02 07:29:00,
2013-05-02 03:44:00,43.2,41.0,30.41,NW,314,2.0,2.0,91,0.00,,,0.00,weatherlink.com 1.10,2013-05-02 07:44:00,
2013-05-02 03:59:00,42.7,41.0,30.42,NW,314,1.0,2.0,94,0.00,,,0.00,weatherlink.com 1.10,2013-05-02 07:59:00,
2013-05-02 04:14:00,42.6,41.0,30.41,NW,319,2.0,3.0,94,0.00,,,0.00,weatherlink.com 1.10,2013-05-02 08:14:00,
2013-05-02 04:29:00,42.5,41.0,30.41,NW,319,2.0,3.0,95,0.00,,,0.00,weatherlink.com 1.10,2013-05-02 08:29:00,
2013-05-02 04:44:00,42.5,41.0,30.41,NW,319,1.0,2.0,94,0.00,,,0.00,weatherlink.com 1.10,2013-05-02 08:44:00,
2013-05-02 04:59:00,42.5,41.0,30.42,NW,318,1.0,2.0,94,0.00,,,0.00,weatherlink.com 1.10,2013-05-02 08:59:00,
2013-05-02 05:14:00,41.7,40.0,30.41,NW,318,1.0,2.0,95,0.00,,,0.00,weatherlink.com 1.10,2013-05-02 09:14:00,
2013-05-02 05:29:00,41.3,40.0,30.41,NW,319,2.0,2.0,96,0.00,,,0.00,weatherlink.com 1.10,2013-05-02 09:29:00,
2013-05-02 05:44:00,41.4,40.0,30.42,NW,313,1.0,2.0,96,0.00,,,0.00,weatherlink.com 1.10,2013-05-02 09:44:00,
2013-05-02 05:59:00,40.9,40.0,30.42,NW,314,1.0,2.0,97,0.00,,,0.00,weatherlink.com 1.10,2013-05-02 09:59:00,
2013-05-02 06:14:00,40.5,40.0,30.43,NW,314,1.0,1.0,97,0.00,,,0.00,weatherlink.com 1.10,2013-05-02 10:14:00,
2013-05-02 06:29:00,40.7,40.0,30.43,NW,314,2.0,2.0,98,0.00,,,0.00,weatherlink.com 1.10,2013-05-02 10:29:00,
2013-05-02 06:44:00,42.2,42.0,30.43,NW,314,0.0,1.0,98,0.00,,,0.00,weatherlink.com 1.10,2013-05-02 10:44:00,
2013-05-02 06:59:00,43.9,43.0,30.43,NNW,331,0.0,2.0,96,0.00,,,0.00,weatherlink.com 1.10,2013-05-02 10:59:00,
2013-05-02 07:14:00,45.8,44.0,30.44,NNW,338,1.0,1.0,92,0.00,,,0.00,weatherlink.com 1.10,2013-05-02 11:14:00,
2013-05-02 07:29:00,48.5,45.0,30.44,NNW,338,0.0,2.0,88,0.00,,,0.00,weatherlink.com 1.10,2013-05-02 11:29:00,
2013-05-02 07:44:00,50.6,45.0,30.45,East,82,0.0,3.0,82,0.00,,,0.00,weatherlink.com 1.10,2013-05-02 11:44:00,
2013-05-02 07:59:00,51.9,45.0,30.45,East,82,3.0,6.0,77,0.00,,,0.00,weatherlink.com 1.10,2013-05-02 11:59:00,
2013-05-02 08:14:00,52.5,45.0,30.45,East,84,2.0,4.0,76,0.00,,,0.00,weatherlink.com 1.10,2013-05-02 12:14:00,
2013-05-02 08:29:00,53.6,46.0,30.45,ENE,74,2.0,5.0,75,0.00,,,0.00,weatherlink.com 1.10,2013-05-02 12:29:00,
2013-05-02 08:44:00,54.1,46.0,30.45,SE,127,3.0,6.0,73,0.00,,,0.00,weatherlink.com 1.10,2013-05-02 12:44:00,
2013-05-02 08:59:00,54.7,45.0,30.45,SSE,150,3.0,6.0,70,0.00,,,0.00,weatherlink.com 1.10,2013-05-02 12:59:00,
2013-05-02 09:14:00,55.3,46.0,30.45,ENE,67,5.0,6.0,71,0.00,,,0.00,weatherlink.com 1.10,2013-05-02 13:14:00,
2013-05-02 09:29:00,55.9,47.0,30.45,ESE,122,6.0,7.0,71,0.00,,,0.00,weatherlink.com 1.10,2013-05-02 13:29:00,
2013-05-02 09:44:00,56.2,46.0,30.45,East,80,2.0,7.0,68,0.00,,,0.00,weatherlink.com 1.10,2013-05-02 13:44:00,
2013-05-02 09:59:00,57.4,46.0,30.45,SE,128,3.0,5.0,67,0.00,,,0.00,weatherlink.com 1.10,2013-05-02 13:59:00,
2013-05-02 10:15:00,57.9,46.0,30.45,SE,146,2.0,7.0,65,0.00,,,0.00,weatherlink.com 1.10,2013-05-02 14:15:00,
2013-05-02 10:30:00,58.8,47.0,30.45,East,84,6.0,6.0,66,0.00,,,0.00,weatherlink.com 1.10,2013-05-02 14:30:00,
2013-05-02 10:45:00,59.0,45.0,30.46,SE,141,4.0,7.0,60,0.00,,,0.00,weatherlink.com 1.10,2013-05-02 14:45:00,
2013-05-02 11:00:00,60.2,46.0,30.46,NE,46,3.0,5.0,60,0.00,,,0.00,weatherlink.com 1.10,2013-05-02 15:00:00,
2013-05-02 11:15:00,61.0,46.0,30.45,SSE,156,4.0,8.0,59,0.00,,,0.00,weatherlink.com 1.10,2013-05-02 15:15:00,
2013-05-02 11:30:00,61.8,47.0,30.45,ESE,121,4.0,6.0,59,0.00,,,0.00,weatherlink.com 1.10,2013-05-02 15:30:00,
2013-05-02 11:45:00,62.7,46.0,30.44,SE,136,0.0,6.0,55,0.00,,,0.00,weatherlink.com 1.10,2013-05-02 15:45:00,
2013-05-02 12:00:00,63.8,48.0,30.44,SSE,149,4.0,6.0,56,0.00,,,0.00,weatherlink.com 1.10,2013-05-02 16:00:00,
2013-05-02 12:15:00,64.5,46.0,30.43,East,93,3.0,7.0,52,0.00,,,0.00,weatherlink.com 1.10,2013-05-02 16:15:00,
2013-05-02 12:30:00,65.3,47.0,30.43,SW,221,3.0,6.0,52,0.00,,,0.00,weatherlink.com 1.10,2013-05-02 16:30:00,
2013-05-02 12:45:00,66.1,48.0,30.42,WSW,258,1.0,7.0,53,0.00,,,0.00,weatherlink.com 1.10,2013-05-02 16:45:00,
2013-05-02 13:00:00,65.1,48.0,30.42,North,357,2.0,7.0,54,0.00,,,0.00,weatherlink.com 1.10,2013-05-02 17:00:00,
2013-05-02 13:15:00,66.7,49.0,30.41,South,177,4.0,6.0,54,0.00,,,0.00,weatherlink.com 1.10,2013-05-02 17:15:00,
2013-05-02 13:30:00,67.1,48.0,30.41,ESE,116,5.0,7.0,51,0.00,,,0.00,weatherlink.com 1.10,2013-05-02 17:30:00,
2013-05-02 13:45:00,68.5,46.0,30.41,NNE,25,3.0,7.0,45,0.00,,,0.00,weatherlink.com 1.10,2013-05-02 17:45:00,
2013-05-02 14:00:00,68.0,46.0,30.40,ENE,60,3.0,6.0,45,0.00,,,0.00,weatherlink.com 1.10,2013-05-02 18:00:00,
2013-05-02 14:15:00,68.7,46.0,30.40,SSE,147,3.0,8.0,45,0.00,,,0.00,weatherlink.com 1.10,2013-05-02 18:15:00,
2013-05-02 14:30:00,69.6,45.0,30.40,SE,143,4.0,8.0,42,0.00,,,0.00,weatherlink.com 1.10,2013-05-02 18:30:00,
2013-05-02 14:45:00,68.9,45.0,30.39,ESE,120,4.0,9.0,43,0.00,,,0.00,weatherlink.com 1.10,2013-05-02 18:45:00,
2013-05-02 15:00:00,69.7,46.0,30.39,ESE,113,3.0,4.0,43,0.00,,,0.00,weatherlink.com 1.10,2013-05-02 19:00:00,
2013-05-02 15:15:00,69.5,46.0,30.38,SE,133,5.0,11.0,43,0.00,,,0.00,weatherlink.com 1.10,2013-05-02 19:15:00,
2013-05-02 15:30:00,69.9,47.0,30.37,ENE,75,0.0,7.0,44,0.00,,,0.00,weatherlink.com 1.10,2013-05-02 19:30:00,
2013-05-02 15:45:00,70.6,46.0,30.37,ENE,73,2.0,10.0,42,0.00,,,0.00,weatherlink.com 1.10,2013-05-02 19:45:00,
2013-05-02 16:00:00,70.9,47.0,30.37,SE,143,4.0,6.0,43,0.00,,,0.00,weatherlink.com 1.10,2013-05-02 20:00:00,
2013-05-02 16:15:00,70.9,45.0,30.36,SE,128,4.0,10.0,40,0.00,,,0.00,weatherlink.com 1.10,2013-05-02 20:15:00,
2013-05-02 16:30:00,71.3,46.0,30.35,SE,131,2.0,5.0,41,0.00,,,0.00,weatherlink.com 1.10,2013-05-02 20:30:00,
2013-05-02 16:46:00,71.6,47.0,30.35,ESE,121,2.0,9.0,41,0.00,,,0.00,weatherlink.com 1.10,2013-05-02 20:46:00,
2013-05-02 17:01:00,71.9,46.0,30.35,ESE,120,7.0,7.0,39,0.00,,,0.00,weatherlink.com 1.10,2013-05-02 21:01:00,
2013-05-02 17:16:00,71.6,45.0,30.34,ESE,122,4.0,7.0,38,0.00,,,0.00,weatherlink.com 1.10,2013-05-02 21:16:00,
2013-05-02 17:31:00,71.4,44.0,30.34,SE,133,3.0,8.0,37,0.00,,,0.00,weatherlink.com 1.10,2013-05-02 21:31:00,
2013-05-02 17:46:00,71.1,44.0,30.34,SSE,159,5.0,7.0,38,0.00,,,0.00,weatherlink.com 1.10,2013-05-02 21:46:00,
2013-05-02 18:01:00,70.5,44.0,30.34,SSE,160,4.0,9.0,38,0.00,,,0.00,weatherlink.com 1.10,2013-05-02 22:01:00,
2013-05-02 18:16:00,70.3,44.0,30.33,SE,137,4.0,9.0,39,0.00,,,0.00,weatherlink.com 1.10,2013-05-02 22:16:00,
2013-05-02 18:31:00,69.9,45.0,30.33,South,184,3.0,6.0,41,0.00,,,0.00,weatherlink.com 1.10,2013-05-02 22:31:00,
2013-05-02 18:46:00,69.7,45.0,30.33,South,172,3.0,8.0,41,0.00,,,0.00,weatherlink.com 1.10,2013-05-02 22:46:00,
2013-05-02 19:01:00,68.9,46.0,30.33,South,177,3.0,7.0,44,0.00,,,0.00,weatherlink.com 1.10,2013-05-02 23:01:00,
2013-05-02 19:16:00,67.8,46.0,30.32,SSE,156,1.0,5.0,45,0.00,,,0.00,weatherlink.com 1.10,2013-05-02 23:16:00,
2013-05-02 19:31:00,66.7,46.0,30.32,SSE,161,0.0,2.0,48,0.00,,,0.00,weatherlink.com 1.10,2013-05-02 23:31:00,
2013-05-02 19:46:00,65.3,46.0,30.32,SSE,159,0.0,1.0,50,0.00,,,0.00,weatherlink.com 1.10,2013-05-02 23:46:00,
2013-05-02 20:01:00,63.5,46.0,30.32,SSE,159,1.0,1.0,53,0.00,,,0.00,weatherlink.com 1.10,2013-05-03 00:01:00,
2013-05-02 20:16:00,61.8,46.0,30.32,SSE,159,1.0,1.0,57,0.00,,,0.00,weatherlink.com 1.10,2013-05-03 00:16:00,
2013-05-02 20:31:00,60.6,48.0,30.32,WSW,249,1.0,1.0,63,0.00,,,0.00,weatherlink.com 1.10,2013-05-03 00:31:00,
2013-05-02 20:46:00,59.7,46.0,30.32,West,269,1.0,1.0,62,0.00,,,0.00,weatherlink.com 1.10,2013-05-03 00:46:00,
2013-05-02 21:01:00,58.9,46.0,30.32,West,276,2.0,2.0,62,0.00,,,0.00,weatherlink.com 1.10,2013-05-03 01:01:00,
2013-05-02 21:16:00,58.6,45.0,30.32,WNW,283,1.0,2.0,61,0.00,,,0.00,weatherlink.com 1.10,2013-05-03 01:16:00,
2013-05-02 21:31:00,57.6,47.0,30.32,WNW,283,2.0,2.0,67,0.00,,,0.00,weatherlink.com 1.10,2013-05-03 01:31:00,
2013-05-02 21:46:00,57.1,45.0,30.32,WNW,299,2.0,2.0,64,0.00,,,0.00,weatherlink.com 1.10,2013-05-03 01:46:00,
2013-05-02 22:01:00,56.3,45.0,30.32,NW,308,2.0,2.0,66,0.00,,,0.00,weatherlink.com 1.10,2013-05-03 02:01:00,
2013-05-02 22:16:00,56.0,45.0,30.32,NW,307,2.0,2.0,66,0.00,,,0.00,weatherlink.com 1.10,2013-05-03 02:16:00,
2013-05-02 22:31:00,55.5,44.0,30.32,NW,308,1.0,1.0,66,0.00,,,0.00,weatherlink.com 1.10,2013-05-03 02:31:00,
2013-05-02 22:46:00,55.2,44.0,30.32,NW,307,0.0,1.0,67,0.00,,,0.00,weatherlink.com 1.10,2013-05-03 02:46:00,
2013-05-02 23:01:00,55.3,45.0,30.32,NW,308,0.0,0.0,68,0.00,,,0.00,weatherlink.com 1.10,2013-05-03 03:01:00,
2013-05-02 23:16:00,54.9,45.0,30.32,NW,307,0.0,0.0,70,0.00,,,0.00,weatherlink.com 1.10,2013-05-03 03:16:00,
2013-05-02 23:31:00,54.4,45.0,30.32,WSW,245,0.0,1.0,71,0.00,,,0.00,weatherlink.com 1.10,2013-05-03 03:31:00,
2013-05-02 23:46:00,55.0,46.0,30.32,ESE,115,0.0,1.0,71,0.00,,,0.00,weatherlink.com 1.10,2013-05-03 03:46:00,